Aérodrome :
LOGIN :

S'inscrire | Disclaimer

   EN    FR    IT 

 










Légende :    VFR   VFR Marginal   IFR   IFR Intensif   IFR Très Intensif
Visi : 
Plafond : 
>= 8 km
>= 3000ft
5 à 8 km
1000 à 3000 ft
1500m à 5 km
500 à 1000 ft
800 à 1500m
200 à 500 ft
< 800m
< 200 ft
Symboles :   Orages  Brouillard  Fortes neiges  Fortes précipitations  Vent > 20 kt
SIGMETs :   Divers  Orages  Givrage  Turbulence  Onde Orograph.  Cendres Volcan.







- Altitude de l'aérodrome : 1017 ft
- Voir les cartes d'approche


LFSL - Brive Souillac

DERNIER METAR :
  • 221630Z AUTO 17003KT 120V230 9999 NCD 21/06 Q1000 NOSIG

METARs EXPIRÉS :
  • 221600Z AUTO 15003KT 110V200 9999 NCD 20/07 Q1000 NOSIG
  • 221530Z AUTO VRB03KT 9999 NCD 21/07 Q1000 NOSIG
  • 221500Z AUTO VRB03KT 9999 NCD 20/06 Q1000 NOSIG
  • 221430Z AUTO 22003KT 170V290 9999 NCD 20/06 Q1001 NOSIG
  • 221400Z AUTO 18007KT 150V230 9999 ///TCU 20/06 Q1002 BECMG NSC
  • 221330Z AUTO 17007KT 140V200 9999 ///TCU 20/06 Q1002 BECMG NSC

TAF TAF LFSL
Valide du 22 à 15h jusqu'au 23 à 00h UTC


221400Z 2215/2224 18005KT CAVOK
Pas de NOTAMs connus pour ce terrain.



MET'MAP, la Météo Aéronautique d'un coup d'oeil ! - Copyright ORBIFLY Décembre 2007 - Disclaimer

ORBIFLY MET'MAP TEAM :

Programmation & Développement : Alexandra Zaïnal
Conception & Développement : Baudouin d'Aumeries
Co-Programmation & Développement : Marc-Olivier Méhu
Soutien technique & logistique : Manuel Goepfert

Contact : metmap@orbifly.com




SOURCES & CREDITS :

   NOAA